sensor_id;sensor_type;location;lat;lon;timestamp;pressure;altitude;pressure_sealevel;temperature;humidity
10060;BME280;5069;49.306;8.636;2024-03-02T00:01:24;99375.16;;;7.60;100.00
10060;BME280;5069;49.306;8.636;2024-03-02T00:04:25;99373.44;;;7.59;100.00
10060;BME280;5069;49.306;8.636;2024-03-02T00:07:27;99371.81;;;7.57;100.00
10060;BME280;5069;49.306;8.636;2024-03-02T00:10:38;99376.28;;;7.53;100.00
10060;BME280;5069;49.306;8.636;2024-03-02T00:13:45;99367.69;;;7.50;100.00
10060;BME280;5069;49.306;8.636;2024-03-02T00:16:46;99372.75;;;7.54;100.00
10060;BME280;5069;49.306;8.636;2024-03-02T00:19:48;99358.69;;;7.57;100.00
10060;BME280;5069;49.306;8.636;2024-03-02T00:22:50;99357.75;;;7.58;100.00
10060;BME280;5069;49.306;8.636;2024-03-02T00:25:54;99350.81;;;7.57;100.00
10060;BME280;5069;49.306;8.636;2024-03-02T00:28:56;99349.97;;;7.56;100.00
10060;BME280;5069;49.306;8.636;2024-03-02T00:32:01;99362.28;;;7.54;100.00
10060;BME280;5069;49.306;8.636;2024-03-02T00:35:04;99352.81;;;7.50;100.00
10060;BME280;5069;49.306;8.636;2024-03-02T00:38:06;99348.47;;;7.49;100.00
10060;BME280;5069;49.306;8.636;2024-03-02T00:41:31;99362.63;;;7.45;100.00
10060;BME280;5069;49.306;8.636;2024-03-02T00:44:33;99364.22;;;7.49;100.00
10060;BME280;5069;49.306;8.636;2024-03-02T00:47:40;99359.81;;;7.50;100.00
10060;BME280;5069;49.306;8.636;2024-03-02T00:50:42;99365.94;;;7.50;100.00
10060;BME280;5069;49.306;8.636;2024-03-02T00:53:43;99361.72;;;7.46;100.00
10060;BME280;5069;49.306;8.636;2024-03-02T00:56:45;99365.34;;;7.42;100.00
10060;BME280;5069;49.306;8.636;2024-03-02T00:59:48;99364.66;;;7.37;100.00
10060;BME280;5069;49.306;8.636;2024-03-02T01:02:50;99362.16;;;7.34;100.00
10060;BME280;5069;49.306;8.636;2024-03-02T01:05:51;99358.56;;;7.36;100.00
10060;BME280;5069;49.306;8.636;2024-03-02T01:08:53;99368.19;;;7.36;100.00
10060;BME280;5069;49.306;8.636;2024-03-02T01:11:55;99366.47;;;7.35;100.00
10060;BME280;5069;49.306;8.636;2024-03-02T01:14:56;99380.28;;;7.40;100.00
10060;BME280;5069;49.306;8.636;2024-03-02T01:17:57;99382.75;;;7.44;100.00
10060;BME280;5069;49.306;8.636;2024-03-02T01:20:59;99375.97;;;7.39;100.00
10060;BME280;5069;49.306;8.636;2024-03-02T01:24:01;99379.44;;;7.39;100.00
10060;BME280;5069;49.306;8.636;2024-03-02T01:27:02;99384.03;;;7.33;100.00
10060;BME280;5069;49.306;8.636;2024-03-02T01:30:04;99389.34;;;7.31;100.00
10060;BME280;5069;49.306;8.636;2024-03-02T01:33:06;99382.78;;;7.20;100.00
10060;BME280;5069;49.306;8.636;2024-03-02T01:36:08;99379.13;;;7.24;100.00
10060;BME280;5069;49.306;8.636;2024-03-02T01:39:09;99374.00;;;7.21;100.00
10060;BME280;5069;49.306;8.636;2024-03-02T01:42:11;99368.97;;;7.15;100.00
10060;BME280;5069;49.306;8.636;2024-03-02T01:45:13;99370.78;;;7.13;100.00
10060;BME280;5069;49.306;8.636;2024-03-02T01:48:15;99370.06;;;7.09;100.00
10060;BME280;5069;49.306;8.636;2024-03-02T01:51:16;99367.47;;;7.07;100.00
10060;BME280;5069;49.306;8.636;2024-03-02T01:54:18;99358.72;;;7.09;100.00
10060;BME280;5069;49.306;8.636;2024-03-02T01:57:19;99363.13;;;7.06;100.00
10060;BME280;5069;49.306;8.636;2024-03-02T02:00:21;99353.38;;;7.12;100.00
10060;BME280;5069;49.306;8.636;2024-03-02T02:03:24;99349.91;;;7.11;100.00
10060;BME280;5069;49.306;8.636;2024-03-02T02:06:26;99346.59;;;7.06;100.00
10060;BME280;5069;49.306;8.636;2024-03-02T02:09:27;99353.69;;;7.02;100.00
10060;BME280;5069;49.306;8.636;2024-03-02T02:12:29;99351.88;;;7.04;100.00
10060;BME280;5069;49.306;8.636;2024-03-02T02:15:30;99342.25;;;7.05;100.00
10060;BME280;5069;49.306;8.636;2024-03-02T02:18:33;99329.78;;;7.12;100.00
10060;BME280;5069;49.306;8.636;2024-03-02T02:21:35;99330.78;;;7.07;100.00
10060;BME280;5069;49.306;8.636;2024-03-02T02:24:40;99331.22;;;7.20;100.00
10060;BME280;5069;49.306;8.636;2024-03-02T02:27:42;99327.63;;;7.23;100.00
10060;BME280;5069;49.306;8.636;2024-03-02T02:30:43;99332.06;;;7.21;100.00
10060;BME280;5069;49.306;8.636;2024-03-02T02:33:45;99327.72;;;7.20;100.00
10060;BME280;5069;49.306;8.636;2024-03-02T02:36:46;99329.63;;;7.16;100.00
10060;BME280;5069;49.306;8.636;2024-03-02T02:39:48;99330.78;;;7.07;100.00
10060;BME280;5069;49.306;8.636;2024-03-02T02:42:50;99328.19;;;7.07;100.00
10060;BME280;5069;49.306;8.636;2024-03-02T02:45:53;99326.72;;;7.00;100.00
10060;BME280;5069;49.306;8.636;2024-03-02T02:48:55;99319.97;;;6.93;100.00
10060;BME280;5069;49.306;8.636;2024-03-02T02:51:56;99321.69;;;6.94;100.00
10060;BME280;5069;49.306;8.636;2024-03-02T02:54:58;99320.81;;;6.94;100.00
10060;BME280;5069;49.306;8.636;2024-03-02T02:58:00;99318.34;;;6.89;100.00
10060;BME280;5069;49.306;8.636;2024-03-02T03:01:01;99319.38;;;6.85;100.00
10060;BME280;5069;49.306;8.636;2024-03-02T03:04:03;99316.53;;;6.91;100.00
10060;BME280;5069;49.306;8.636;2024-03-02T03:07:04;99314.81;;;6.90;100.00
10060;BME280;5069;49.306;8.636;2024-03-02T03:10:07;99310.50;;;6.89;100.00
10060;BME280;5069;49.306;8.636;2024-03-02T03:13:08;99307.09;;;6.87;100.00
10060;BME280;5069;49.306;8.636;2024-03-02T03:16:10;99311.25;;;6.93;100.00
10060;BME280;5069;49.306;8.636;2024-03-02T03:19:11;99307.72;;;6.94;100.00
10060;BME280;5069;49.306;8.636;2024-03-02T03:22:13;99305.84;;;6.97;100.00
10060;BME280;5069;49.306;8.636;2024-03-02T03:25:15;99292.97;;;6.91;100.00
10060;BME280;5069;49.306;8.636;2024-03-02T03:28:16;99300.66;;;6.96;100.00
10060;BME280;5069;49.306;8.636;2024-03-02T03:31:17;99302.72;;;6.88;100.00
10060;BME280;5069;49.306;8.636;2024-03-02T03:34:19;99300.09;;;6.88;100.00
10060;BME280;5069;49.306;8.636;2024-03-02T03:37:20;99300.88;;;6.90;100.00
10060;BME280;5069;49.306;8.636;2024-03-02T03:40:22;99307.81;;;6.91;100.00
10060;BME280;5069;49.306;8.636;2024-03-02T03:43:23;99305.25;;;6.89;100.00
10060;BME280;5069;49.306;8.636;2024-03-02T03:46:25;99291.25;;;6.90;100.00
10060;BME280;5069;49.306;8.636;2024-03-02T03:49:26;99293.19;;;6.85;100.00
10060;BME280;5069;49.306;8.636;2024-03-02T03:52:28;99291.34;;;6.89;100.00
10060;BME280;5069;49.306;8.636;2024-03-02T03:55:29;99298.19;;;6.91;100.00
10060;BME280;5069;49.306;8.636;2024-03-02T03:58:31;99309.53;;;6.92;100.00
10060;BME280;5069;49.306;8.636;2024-03-02T04:01:32;99306.09;;;6.90;100.00
10060;BME280;5069;49.306;8.636;2024-03-02T04:04:35;99308.00;;;6.86;100.00
10060;BME280;5069;49.306;8.636;2024-03-02T04:07:37;99313.19;;;6.88;100.00
10060;BME280;5069;49.306;8.636;2024-03-02T04:10:41;99305.25;;;6.89;100.00
10060;BME280;5069;49.306;8.636;2024-03-02T04:13:43;99302.59;;;6.91;100.00
10060;BME280;5069;49.306;8.636;2024-03-02T04:16:45;99302.38;;;6.97;100.00
10060;BME280;5069;49.306;8.636;2024-03-02T04:19:46;99299.69;;;6.98;100.00
10060;BME280;5069;49.306;8.636;2024-03-02T04:22:48;99303.22;;;6.97;100.00
10060;BME280;5069;49.306;8.636;2024-03-02T04:25:49;99295.28;;;7.00;100.00
10060;BME280;5069;49.306;8.636;2024-03-02T04:28:52;99306.44;;;7.05;100.00
10060;BME280;5069;49.306;8.636;2024-03-02T04:31:53;99299.56;;;7.01;100.00
10060;BME280;5069;49.306;8.636;2024-03-02T04:34:55;99308.13;;;7.06;100.00
10060;BME280;5069;49.306;8.636;2024-03-02T04:37:56;99305.34;;;7.11;100.00
10060;BME280;5069;49.306;8.636;2024-03-02T04:40:58;99304.66;;;7.06;100.00
10060;BME280;5069;49.306;8.636;2024-03-02T04:43:59;99302.16;;;7.03;100.00
10060;BME280;5069;49.306;8.636;2024-03-02T04:47:01;99307.38;;;7.03;100.00
10060;BME280;5069;49.306;8.636;2024-03-02T04:50:02;99304.81;;;7.01;100.00
10060;BME280;5069;49.306;8.636;2024-03-02T04:53:04;99303.22;;;6.97;100.00
10060;BME280;5069;49.306;8.636;2024-03-02T04:56:06;99308.69;;;6.91;100.00
10060;BME280;5069;49.306;8.636;2024-03-02T04:59:26;99313.91;;;6.91;100.00
10060;BME280;5069;49.306;8.636;2024-03-02T05:02:27;99314.81;;;6.90;100.00
10060;BME280;5069;49.306;8.636;2024-03-02T05:05:29;99322.69;;;6.90;100.00
10060;BME280;5069;49.306;8.636;2024-03-02T05:08:30;99334.03;;;6.91;100.00
10060;BME280;5069;49.306;8.636;2024-03-02T05:11:32;99327.94;;;6.90;100.00
10060;BME280;5069;49.306;8.636;2024-03-02T05:14:39;99338.41;;;6.90;100.00
10060;BME280;5069;49.306;8.636;2024-03-02T05:17:41;99341.03;;;6.90;100.00
10060;BME280;5069;49.306;8.636;2024-03-02T05:20:46;99342.16;;;6.83;100.00
10060;BME280;5069;49.306;8.636;2024-03-02T05:23:47;99344.94;;;6.79;100.00
10060;BME280;5069;49.306;8.636;2024-03-02T05:26:49;99345.78;;;6.79;100.00
10060;BME280;5069;49.306;8.636;2024-03-02T05:29:50;99337.22;;;6.74;100.00
10060;BME280;5069;49.306;8.636;2024-03-02T05:32:52;99342.53;;;6.73;100.00
10060;BME280;5069;49.306;8.636;2024-03-02T05:35:53;99342.72;;;6.67;100.00
10060;BME280;5069;49.306;8.636;2024-03-02T05:38:55;99346.31;;;6.64;100.00
10060;BME280;5069;49.306;8.636;2024-03-02T05:41:56;99350.66;;;6.65;100.00
10060;BME280;5069;49.306;8.636;2024-03-02T05:44:58;99350.59;;;6.67;100.00
10060;BME280;5069;49.306;8.636;2024-03-02T05:47:59;99350.25;;;6.51;100.00
10060;BME280;5069;49.306;8.636;2024-03-02T05:51:01;99347.63;;;6.51;100.00
10060;BME280;5069;49.306;8.636;2024-03-02T05:54:03;99342.41;;;6.51;100.00
10060;BME280;5069;49.306;8.636;2024-03-02T05:57:04;99333.16;;;6.41;100.00
10060;BME280;5069;49.306;8.636;2024-03-02T06:00:33;99334.34;;;6.32;100.00
10060;BME280;5069;49.306;8.636;2024-03-02T06:03:34;99335.72;;;6.42;100.00
10060;BME280;5069;49.306;8.636;2024-03-02T06:06:36;99333.16;;;6.41;100.00
10060;BME280;5069;49.306;8.636;2024-03-02T06:09:38;99342.69;;;6.43;100.00
10060;BME280;5069;49.306;8.636;2024-03-02T06:12:40;99351.97;;;6.52;100.00
10060;BME280;5069;49.306;8.636;2024-03-02T06:15:41;99360.53;;;6.57;100.00
10060;BME280;5069;49.306;8.636;2024-03-02T06:18:44;99355.13;;;6.61;100.00
10060;BME280;5069;49.306;8.636;2024-03-02T06:21:45;99359.41;;;6.64;100.00
10060;BME280;5069;49.306;8.636;2024-03-02T06:24:47;99353.47;;;6.59;100.00
10060;BME280;5069;49.306;8.636;2024-03-02T06:27:48;99351.88;;;6.55;100.00
10060;BME280;5069;49.306;8.636;2024-03-02T06:30:50;99359.66;;;6.56;100.00
10060;BME280;5069;49.306;8.636;2024-03-02T06:33:51;99358.44;;;6.67;100.00
10060;BME280;5069;49.306;8.636;2024-03-02T06:36:53;99361.22;;;6.62;100.00
10060;BME280;5069;49.306;8.636;2024-03-02T06:39:55;99361.50;;;6.54;100.00
10060;BME280;5069;49.306;8.636;2024-03-02T06:42:57;99368.34;;;6.58;100.00
10060;BME280;5069;49.306;8.636;2024-03-02T06:45:58;99365.75;;;6.57;100.00
10060;BME280;5069;49.306;8.636;2024-03-02T06:49:00;99364.84;;;6.58;100.00
10060;BME280;5069;49.306;8.636;2024-03-02T06:52:03;99362.34;;;6.55;100.00
10060;BME280;5069;49.306;8.636;2024-03-02T06:55:05;99365.75;;;6.57;100.00
10060;BME280;5069;49.306;8.636;2024-03-02T06:58:07;99362.13;;;6.61;100.00
10060;BME280;5069;49.306;8.636;2024-03-02T07:01:09;99358.59;;;6.62;100.00
10060;BME280;5069;49.306;8.636;2024-03-02T07:04:11;99360.16;;;6.68;100.00
10060;BME280;5069;49.306;8.636;2024-03-02T07:07:12;99356.63;;;6.69;100.00
10060;BME280;5069;49.306;8.636;2024-03-02T07:10:14;99360.00;;;6.72;100.00
10060;BME280;5069;49.306;8.636;2024-03-02T07:13:15;99365.84;;;6.80;100.00
10060;BME280;5069;49.306;8.636;2024-03-02T07:16:17;99370.16;;;6.81;100.00
10060;BME280;5069;49.306;8.636;2024-03-02T07:19:34;99367.56;;;6.81;100.00
10060;BME280;5069;49.306;8.636;2024-03-02T07:22:35;99368.44;;;6.80;100.00
10060;BME280;5069;49.306;8.636;2024-03-02T07:25:40;99372.84;;;6.80;100.00
10060;BME280;5069;49.306;8.636;2024-03-02T07:28:48;99368.44;;;6.80;100.00
10060;BME280;5069;49.306;8.636;2024-03-02T07:31:50;99375.19;;;6.87;100.00
10060;BME280;5069;49.306;8.636;2024-03-02T07:34:51;99385.34;;;6.96;100.00
10060;BME280;5069;49.306;8.636;2024-03-02T07:37:53;99380.78;;;7.01;100.00
10060;BME280;5069;49.306;8.636;2024-03-02T07:40:55;99380.75;;;7.03;100.00
10060;BME280;5069;49.306;8.636;2024-03-02T07:43:57;99377.06;;;7.09;100.00
10060;BME280;5069;49.306;8.636;2024-03-02T07:46:59;99384.03;;;7.33;100.00
10060;BME280;5069;49.306;8.636;2024-03-02T07:50:00;99389.75;;;7.44;100.00
10060;BME280;5069;49.306;8.636;2024-03-02T07:53:02;99385.78;;;7.57;100.00
10060;BME280;5069;49.306;8.636;2024-03-02T07:56:04;99382.56;;;7.72;100.00
10060;BME280;5069;49.306;8.636;2024-03-02T07:59:05;99386.44;;;7.85;100.00
10060;BME280;5069;49.306;8.636;2024-03-02T08:02:08;99379.91;;;7.96;100.00
10060;BME280;5069;49.306;8.636;2024-03-02T08:05:10;99376.81;;;8.08;100.00
10060;BME280;5069;49.306;8.636;2024-03-02T08:08:11;99375.13;;;8.27;100.00
10060;BME280;5069;49.306;8.636;2024-03-02T08:11:13;99369.44;;;8.39;100.00
10060;BME280;5069;49.306;8.636;2024-03-02T08:14:14;99378.50;;;8.52;100.00
10060;BME280;5069;49.306;8.636;2024-03-02T08:17:16;99378.53;;;8.73;100.00
10060;BME280;5069;49.306;8.636;2024-03-02T08:20:17;99372.97;;;8.80;100.00
10060;BME280;5069;49.306;8.636;2024-03-02T08:23:20;99373.19;;;8.94;100.00
10060;BME280;5069;49.306;8.636;2024-03-02T08:26:21;99374.19;;;9.12;100.00
10060;BME280;5069;49.306;8.636;2024-03-02T08:29:23;99370.03;;;9.27;100.00
10060;BME280;5069;49.306;8.636;2024-03-02T08:32:25;99369.06;;;9.48;100.00
10060;BME280;5069;49.306;8.636;2024-03-02T08:35:26;99364.81;;;9.64;100.00
10060;BME280;5069;49.306;8.636;2024-03-02T08:38:28;99370.56;;;9.91;100.00
10060;BME280;5069;49.306;8.636;2024-03-02T08:41:30;99360.88;;;10.10;100.00
10060;BME280;5069;49.306;8.636;2024-03-02T08:44:31;99367.22;;;10.25;100.00
10060;BME280;5069;49.306;8.636;2024-03-02T08:47:34;99367.75;;;10.31;100.00
10060;BME280;5069;49.306;8.636;2024-03-02T08:50:36;99369.25;;;10.37;100.00
10060;BME280;5069;49.306;8.636;2024-03-02T08:53:37;99364.38;;;10.29;100.00
10060;BME280;5069;49.306;8.636;2024-03-02T08:56:39;99362.66;;;10.28;100.00
10060;BME280;5069;49.306;8.636;2024-03-02T08:59:41;99371.97;;;10.35;100.00
10060;BME280;5069;49.306;8.636;2024-03-02T09:02:44;99356.78;;;10.41;100.00
10060;BME280;5069;49.306;8.636;2024-03-02T09:05:45;99361.13;;;10.42;100.00
10060;BME280;5069;49.306;8.636;2024-03-02T09:08:47;99355.41;;;10.51;100.00
10060;BME280;5069;49.306;8.636;2024-03-02T09:11:50;99356.81;;;10.58;100.00
10060;BME280;5069;49.306;8.636;2024-03-02T09:14:52;99351.47;;;10.59;100.00
10060;BME280;5069;49.306;8.636;2024-03-02T09:17:54;99348.34;;;10.68;100.00
10060;BME280;5069;49.306;8.636;2024-03-02T09:20:55;99349.66;;;10.94;100.00
10060;BME280;5069;49.306;8.636;2024-03-02T09:23:57;99354.03;;;11.11;100.00
10060;BME280;5069;49.306;8.636;2024-03-02T09:26:59;99351.94;;;11.17;100.00
10060;BME280;5069;49.306;8.636;2024-03-02T09:30:01;99341.00;;;11.25;100.00
10060;BME280;5069;49.306;8.636;2024-03-02T09:33:03;99358.13;;;11.34;100.00
10060;BME280;5069;49.306;8.636;2024-03-02T09:36:21;99359.97;;;11.49;100.00
10060;BME280;5069;49.306;8.636;2024-03-02T09:39:23;99349.94;;;11.71;100.00
10060;BME280;5069;49.306;8.636;2024-03-02T09:42:26;99351.16;;;11.81;100.00
10060;BME280;5069;49.306;8.636;2024-03-02T09:45:29;99354.41;;;11.86;100.00
10060;BME280;5069;49.306;8.636;2024-03-02T09:48:31;99347.41;;;11.85;100.00
10060;BME280;5069;49.306;8.636;2024-03-02T09:51:32;99347.59;;;11.98;100.00
10060;BME280;5069;49.306;8.636;2024-03-02T09:54:34;99342.31;;;11.98;100.00
10060;BME280;5069;49.306;8.636;2024-03-02T09:57:35;99342.03;;;12.02;100.00
10060;BME280;5069;49.306;8.636;2024-03-02T10:00:40;99335.22;;;12.14;100.00
10060;BME280;5069;49.306;8.636;2024-03-02T10:03:44;99329.88;;;12.00;100.00
10060;BME280;5069;49.306;8.636;2024-03-02T10:06:48;99329.03;;;11.99;100.00
10060;BME280;5069;49.306;8.636;2024-03-02T10:09:49;99321.16;;;12.14;100.00
10060;BME280;5069;49.306;8.636;2024-03-02T10:13:03;99324.56;;;12.16;100.00
10060;BME280;5069;49.306;8.636;2024-03-02T10:16:12;99321.47;;;12.39;100.00
10060;BME280;5069;49.306;8.636;2024-03-02T10:19:23;99322.63;;;12.49;100.00
10060;BME280;5069;49.306;8.636;2024-03-02T10:22:25;99323.13;;;12.56;100.00
10060;BME280;5069;49.306;8.636;2024-03-02T10:25:32;99320.56;;;12.54;100.00
10060;BME280;5069;49.306;8.636;2024-03-02T10:28:51;99322.91;;;12.74;100.00
10060;BME280;5069;49.306;8.636;2024-03-02T10:32:02;99320.47;;;12.86;100.00
10060;BME280;5069;49.306;8.636;2024-03-02T10:35:05;99323.84;;;12.88;100.00
10060;BME280;5069;49.306;8.636;2024-03-02T10:38:07;99318.50;;;13.03;100.00
10060;BME280;5069;49.306;8.636;2024-03-02T10:41:08;99316.81;;;13.16;100.00
10060;BME280;5069;49.306;8.636;2024-03-02T10:44:10;99317.88;;;13.28;100.00
10060;BME280;5069;49.306;8.636;2024-03-02T10:47:12;99309.19;;;13.40;100.00
10060;BME280;5069;49.306;8.636;2024-03-02T10:50:15;99309.25;;;13.53;100.00
10060;BME280;5069;49.306;8.636;2024-03-02T10:53:16;99306.34;;;13.84;100.00
10060;BME280;5069;49.306;8.636;2024-03-02T10:56:23;99296.66;;;13.71;98.18
10060;BME280;5069;49.306;8.636;2024-03-02T10:59:33;99304.41;;;13.74;100.00
10060;BME280;5069;49.306;8.636;2024-03-02T11:02:37;99304.47;;;13.86;98.89
10060;BME280;5069;49.306;8.636;2024-03-02T11:05:44;99298.56;;;13.95;97.46
10060;BME280;5069;49.306;8.636;2024-03-02T11:08:46;99298.06;;;14.17;96.17
10060;BME280;5069;49.306;8.636;2024-03-02T11:12:19;99294.44;;;14.45;98.19
10060;BME280;5069;49.306;8.636;2024-03-02T11:15:18;99289.47;;;14.53;93.70
10060;BME280;5069;49.306;8.636;2024-03-02T11:18:22;99282.91;;;14.59;94.82
10060;BME280;5069;49.306;8.636;2024-03-02T11:21:25;99279.09;;;14.23;91.94
10060;BME280;5069;49.306;8.636;2024-03-02T11:30:49;99260.25;;;14.80;91.53
10060;BME280;5069;49.306;8.636;2024-03-02T11:33:51;99249.72;;;14.78;89.76
10060;BME280;5069;49.306;8.636;2024-03-02T11:36:53;99252.81;;;14.98;89.07
10060;BME280;5069;49.306;8.636;2024-03-02T11:39:54;99240.69;;;15.06;87.27
10060;BME280;5069;49.306;8.636;2024-03-02T11:42:56;99236.66;;;15.26;88.65
10060;BME280;5069;49.306;8.636;2024-03-02T11:46:00;99228.97;;;15.34;82.54
10060;BME280;5069;49.306;8.636;2024-03-02T11:49:06;99221.94;;;15.46;80.38
10060;BME280;5069;49.306;8.636;2024-03-02T11:52:14;99229.16;;;15.44;75.74
10060;BME280;5069;49.306;8.636;2024-03-02T11:55:18;99222.03;;;15.57;80.09
10060;BME280;5069;49.306;8.636;2024-03-02T11:58:20;99210.69;;;15.55;76.17
10060;BME280;5069;49.306;8.636;2024-03-02T12:01:25;99219.84;;;15.75;80.92
10060;BME280;5069;49.306;8.636;2024-03-02T12:04:27;99203.81;;;15.76;76.01
10060;BME280;5069;49.306;8.636;2024-03-02T12:07:28;99209.69;;;15.92;76.35
10060;BME280;5069;49.306;8.636;2024-03-02T12:10:31;99201.44;;;16.19;75.12
10060;BME280;5069;49.306;8.636;2024-03-02T12:13:33;99191.44;;;16.23;71.25
10060;BME280;5069;49.306;8.636;2024-03-02T12:16:35;99185.84;;;16.15;73.81
10060;BME280;5069;49.306;8.636;2024-03-02T12:19:38;99182.69;;;16.09;69.79
10060;BME280;5069;49.306;8.636;2024-03-02T12:22:40;99186.28;;;16.43;71.21
10060;BME280;5069;49.306;8.636;2024-03-02T12:25:42;99181.19;;;16.40;69.68
10060;BME280;5069;49.306;8.636;2024-03-02T12:28:43;99185.47;;;16.54;68.55
10060;BME280;5069;49.306;8.636;2024-03-02T12:31:48;99181.03;;;16.20;65.72
10060;BME280;5069;49.306;8.636;2024-03-02T12:34:50;99178.59;;;16.17;68.08
10060;BME280;5069;49.306;8.636;2024-03-02T12:37:53;99176.41;;;16.57;68.27
10060;BME280;5069;49.306;8.636;2024-03-02T12:40:55;99170.19;;;16.34;65.41
10060;BME280;5069;49.306;8.636;2024-03-02T12:43:57;99166.47;;;16.59;67.30
10060;BME280;5069;49.306;8.636;2024-03-02T12:46:58;99159.28;;;16.83;63.03
10060;BME280;5069;49.306;8.636;2024-03-02T12:50:03;99152.41;;;16.91;64.22
10060;BME280;5069;49.306;8.636;2024-03-02T12:53:05;99151.06;;;16.97;63.90
10060;BME280;5069;49.306;8.636;2024-03-02T12:56:08;99148.50;;;17.07;65.28
10060;BME280;5069;49.306;8.636;2024-03-02T12:59:09;99151.38;;;17.26;63.42
10060;BME280;5069;49.306;8.636;2024-03-02T13:02:19;99152.03;;;17.50;60.73
10060;BME280;5069;49.306;8.636;2024-03-02T13:05:21;99145.75;;;17.51;60.62
10060;BME280;5069;49.306;8.636;2024-03-02T13:08:23;99145.59;;;17.75;61.67
10060;BME280;5069;49.306;8.636;2024-03-02T13:11:24;99141.84;;;17.66;59.20
10060;BME280;5069;49.306;8.636;2024-03-02T13:14:26;99136.47;;;17.34;58.65
10060;BME280;5069;49.306;8.636;2024-03-02T13:17:28;99136.06;;;17.61;60.88
10060;BME280;5069;49.306;8.636;2024-03-02T13:20:36;99135.22;;;17.93;59.08
10060;BME280;5069;49.306;8.636;2024-03-02T13:23:38;99137.09;;;17.81;57.33
10060;BME280;5069;49.306;8.636;2024-03-02T13:26:40;99133.16;;;17.53;59.21
10060;BME280;5069;49.306;8.636;2024-03-02T13:29:42;99123.69;;;17.60;55.88
10060;BME280;5069;49.306;8.636;2024-03-02T13:32:43;99117.69;;;17.47;56.36
10060;BME280;5069;49.306;8.636;2024-03-02T13:35:45;99121.75;;;17.62;54.81
10060;BME280;5069;49.306;8.636;2024-03-02T13:38:46;99116.63;;;17.82;55.07
10060;BME280;5069;49.306;8.636;2024-03-02T13:41:48;99108.47;;;17.83;54.42
10060;BME280;5069;49.306;8.636;2024-03-02T13:44:54;99114.59;;;17.95;53.72
10060;BME280;5069;49.306;8.636;2024-03-02T13:47:56;99102.09;;;17.95;53.61
10060;BME280;5069;49.306;8.636;2024-03-02T13:50:57;99099.19;;;18.19;52.91
10060;BME280;5069;49.306;8.636;2024-03-02T13:53:58;99095.56;;;18.20;51.09
10060;BME280;5069;49.306;8.636;2024-03-02T13:57:00;99087.84;;;18.47;51.38
10060;BME280;5069;49.306;8.636;2024-03-02T14:00:02;99094.53;;;18.42;50.58
10060;BME280;5069;49.306;8.636;2024-03-02T14:03:12;99084.25;;;18.58;51.96
10060;BME280;5069;49.306;8.636;2024-03-02T14:06:13;99075.78;;;18.53;50.71
10060;BME280;5069;49.306;8.636;2024-03-02T14:09:15;99080.00;;;18.25;49.99
10060;BME280;5069;49.306;8.636;2024-03-02T14:12:16;99077.81;;;18.40;50.17
10060;BME280;5069;49.306;8.636;2024-03-02T14:15:18;99073.03;;;18.54;49.62
10060;BME280;5069;49.306;8.636;2024-03-02T14:18:22;99069.09;;;18.58;48.81
10060;BME280;5069;49.306;8.636;2024-03-02T14:21:24;99058.31;;;18.70;49.32
10060;BME280;5069;49.306;8.636;2024-03-02T14:24:25;99071.56;;;18.50;48.62
10060;BME280;5069;49.306;8.636;2024-03-02T14:27:27;99059.69;;;18.54;49.26
10060;BME280;5069;49.306;8.636;2024-03-02T14:30:49;99054.56;;;18.51;49.52
10060;BME280;5069;49.306;8.636;2024-03-02T14:33:52;99051.69;;;18.54;49.02
10060;BME280;5069;49.306;8.636;2024-03-02T14:36:54;99058.91;;;18.52;49.61
10060;BME280;5069;49.306;8.636;2024-03-02T14:39:56;99049.78;;;18.76;48.46
10060;BME280;5069;49.306;8.636;2024-03-02T14:42:58;99039.63;;;18.70;48.33
10060;BME280;5069;49.306;8.636;2024-03-02T14:46:00;99052.09;;;18.90;47.62
10060;BME280;5069;49.306;8.636;2024-03-02T14:49:02;99040.97;;;18.85;48.13
10060;BME280;5069;49.306;8.636;2024-03-02T14:52:04;99035.69;;;18.64;48.47
10060;BME280;5069;49.306;8.636;2024-03-02T14:55:06;99034.44;;;18.38;49.12
10060;BME280;5069;49.306;8.636;2024-03-02T14:58:09;99038.13;;;18.16;49.08
10060;BME280;5069;49.306;8.636;2024-03-02T15:01:11;99033.06;;;17.92;50.43
10060;BME280;5069;49.306;8.636;2024-03-02T15:04:13;99027.78;;;17.60;50.69
10060;BME280;5069;49.306;8.636;2024-03-02T15:07:15;99027.50;;;17.31;51.91
10060;BME280;5069;49.306;8.636;2024-03-02T15:10:17;99025.28;;;17.16;53.51
10060;BME280;5069;49.306;8.636;2024-03-02T15:13:19;99022.09;;;16.90;53.34
10060;BME280;5069;49.306;8.636;2024-03-02T15:16:21;99024.88;;;16.77;54.15
10060;BME280;5069;49.306;8.636;2024-03-02T15:19:23;99019.00;;;16.63;56.24
10060;BME280;5069;49.306;8.636;2024-03-02T15:22:24;99011.00;;;16.51;57.27
10060;BME280;5069;49.306;8.636;2024-03-02T15:25:26;99014.25;;;16.44;58.27
10060;BME280;5069;49.306;8.636;2024-03-02T15:28:27;99011.97;;;16.28;57.09
10060;BME280;5069;49.306;8.636;2024-03-02T15:31:29;99002.88;;;16.20;58.87
10060;BME280;5069;49.306;8.636;2024-03-02T15:34:31;98999.75;;;16.03;57.77
10060;BME280;5069;49.306;8.636;2024-03-02T15:37:33;98997.34;;;16.00;59.24
10060;BME280;5069;49.306;8.636;2024-03-02T15:40:34;99003.00;;;15.96;60.69
10060;BME280;5069;49.306;8.636;2024-03-02T15:43:35;99000.56;;;15.82;61.40
10060;BME280;5069;49.306;8.636;2024-03-02T15:46:40;98997.41;;;15.77;61.40
10060;BME280;5069;49.306;8.636;2024-03-02T15:49:41;99000.91;;;15.66;60.87
10060;BME280;5069;49.306;8.636;2024-03-02T15:52:43;99001.38;;;15.60;62.00
10060;BME280;5069;49.306;8.636;2024-03-02T15:55:46;99000.31;;;15.50;63.57
10060;BME280;5069;49.306;8.636;2024-03-02T15:58:48;99001.78;;;15.43;64.80
10060;BME280;5069;49.306;8.636;2024-03-02T16:01:49;98992.78;;;15.32;65.13
10060;BME280;5069;49.306;8.636;2024-03-02T16:04:51;98995.19;;;15.24;66.08
10060;BME280;5069;49.306;8.636;2024-03-02T16:07:53;98993.81;;;15.19;67.27
10060;BME280;5069;49.306;8.636;2024-03-02T16:10:54;99000.34;;;15.15;68.34
10060;BME280;5069;49.306;8.636;2024-03-02T16:13:56;98991.34;;;15.05;67.64
10060;BME280;5069;49.306;8.636;2024-03-02T16:16:58;98992.88;;;14.96;68.46
10060;BME280;5069;49.306;8.636;2024-03-02T16:19:59;98994.06;;;14.92;69.30
10060;BME280;5069;49.306;8.636;2024-03-02T16:23:01;98993.44;;;14.88;70.35
10060;BME280;5069;49.306;8.636;2024-03-02T16:26:02;98992.81;;;14.85;71.06